sensor_id;sensor_type;location;lat;lon;timestamp;P1;durP1;ratioP1;P2;durP2;ratioP2
46288;SDS011;63105;46.158;14.604;2022-09-25T00:00:19;2.77;;;1.47;;
46288;SDS011;63105;46.158;14.604;2022-09-25T00:02:44;4.32;;;2.42;;
46288;SDS011;63105;46.158;14.604;2022-09-25T00:05:10;4.22;;;2.20;;
46288;SDS011;63105;46.158;14.604;2022-09-25T00:07:35;4.60;;;2.42;;
46288;SDS011;63105;46.158;14.604;2022-09-25T00:10:00;2.93;;;1.63;;
46288;SDS011;63105;46.158;14.604;2022-09-25T00:12:25;3.17;;;1.50;;
46288;SDS011;63105;46.158;14.604;2022-09-25T00:14:51;4.63;;;1.95;;
46288;SDS011;63105;46.158;14.604;2022-09-25T00:17:16;3.42;;;1.50;;
46288;SDS011;63105;46.158;14.604;2022-09-25T00:19:41;3.20;;;1.55;;
46288;SDS011;63105;46.158;14.604;2022-09-25T00:22:16;2.67;;;1.30;;
46288;SDS011;63105;46.158;14.604;2022-09-25T00:24:41;4.03;;;1.75;;
46288;SDS011;63105;46.158;14.604;2022-09-25T00:27:07;3.10;;;1.40;;
46288;SDS011;63105;46.158;14.604;2022-09-25T00:29:33;2.88;;;1.40;;
46288;SDS011;63105;46.158;14.604;2022-09-25T00:32:00;4.30;;;2.20;;
46288;SDS011;63105;46.158;14.604;2022-09-25T00:34:25;2.72;;;1.35;;
46288;SDS011;63105;46.158;14.604;2022-09-25T00:36:50;4.50;;;1.80;;
46288;SDS011;63105;46.158;14.604;2022-09-25T00:39:15;4.85;;;2.10;;
46288;SDS011;63105;46.158;14.604;2022-09-25T00:41:41;3.23;;;1.70;;
46288;SDS011;63105;46.158;14.604;2022-09-25T00:44:42;3.50;;;1.70;;
46288;SDS011;63105;46.158;14.604;2022-09-25T00:46:51;2.72;;;1.67;;
46288;SDS011;63105;46.158;14.604;2022-09-25T00:49:18;4.10;;;1.70;;
46288;SDS011;63105;46.158;14.604;2022-09-25T00:51:45;3.08;;;1.48;;
46288;SDS011;63105;46.158;14.604;2022-09-25T00:54:14;3.67;;;1.48;;
46288;SDS011;63105;46.158;14.604;2022-09-25T00:56:41;4.65;;;2.30;;
46288;SDS011;63105;46.158;14.604;2022-09-25T00:59:08;4.57;;;1.65;;
46288;SDS011;63105;46.158;14.604;2022-09-25T01:01:35;4.88;;;1.85;;
46288;SDS011;63105;46.158;14.604;2022-09-25T01:04:01;4.68;;;2.08;;
46288;SDS011;63105;46.158;14.604;2022-09-25T01:06:26;3.60;;;1.30;;
46288;SDS011;63105;46.158;14.604;2022-09-25T01:08:51;3.47;;;1.40;;
46288;SDS011;63105;46.158;14.604;2022-09-25T01:11:17;4.10;;;1.40;;
46288;SDS011;63105;46.158;14.604;2022-09-25T01:13:42;3.87;;;1.40;;
46288;SDS011;63105;46.158;14.604;2022-09-25T01:16:10;3.20;;;1.37;;
46288;SDS011;63105;46.158;14.604;2022-09-25T01:21:20;3.30;;;1.23;;
46288;SDS011;63105;46.158;14.604;2022-09-25T01:31:15;3.75;;;1.52;;
46288;SDS011;63105;46.158;14.604;2022-09-25T01:33:49;3.47;;;1.48;;
46288;SDS011;63105;46.158;14.604;2022-09-25T01:36:20;3.17;;;1.30;;
46288;SDS011;63105;46.158;14.604;2022-09-25T01:39:08;3.22;;;1.40;;
46288;SDS011;63105;46.158;14.604;2022-09-25T01:41:41;3.10;;;1.40;;
46288;SDS011;63105;46.158;14.604;2022-09-25T01:44:11;3.10;;;1.50;;
46288;SDS011;63105;46.158;14.604;2022-09-25T01:46:41;4.05;;;1.58;;
46288;SDS011;63105;46.158;14.604;2022-09-25T01:49:10;3.53;;;1.95;;
46288;SDS011;63105;46.158;14.604;2022-09-25T01:51:44;4.03;;;1.73;;
46288;SDS011;63105;46.158;14.604;2022-09-25T01:54:11;4.32;;;1.40;;
46288;SDS011;63105;46.158;14.604;2022-09-25T01:59:16;3.13;;;1.40;;
46288;SDS011;63105;46.158;14.604;2022-09-25T02:01:42;4.22;;;1.88;;
46288;SDS011;63105;46.158;14.604;2022-09-25T02:07:04;3.53;;;1.80;;
46288;SDS011;63105;46.158;14.604;2022-09-25T02:12:30;3.40;;;2.03;;
46288;SDS011;63105;46.158;14.604;2022-09-25T02:14:59;2.85;;;1.30;;
46288;SDS011;63105;46.158;14.604;2022-09-25T02:17:30;3.80;;;1.83;;
46288;SDS011;63105;46.158;14.604;2022-09-25T02:20:14;2.88;;;1.30;;
46288;SDS011;63105;46.158;14.604;2022-09-25T02:23:18;3.58;;;1.50;;
46288;SDS011;63105;46.158;14.604;2022-09-25T02:25:47;2.78;;;1.30;;
46288;SDS011;63105;46.158;14.604;2022-09-25T02:28:16;2.60;;;1.27;;
46288;SDS011;63105;46.158;14.604;2022-09-25T02:30:42;3.47;;;1.45;;
46288;SDS011;63105;46.158;14.604;2022-09-25T02:33:08;2.92;;;1.50;;
46288;SDS011;63105;46.158;14.604;2022-09-25T02:35:33;2.92;;;1.38;;
46288;SDS011;63105;46.158;14.604;2022-09-25T02:37:59;4.15;;;2.10;;
46288;SDS011;63105;46.158;14.604;2022-09-25T02:40:27;4.10;;;1.92;;
46288;SDS011;63105;46.158;14.604;2022-09-25T02:43:37;4.13;;;2.22;;
46288;SDS011;63105;46.158;14.604;2022-09-25T02:45:52;3.67;;;1.50;;
46288;SDS011;63105;46.158;14.604;2022-09-25T02:48:31;3.38;;;1.80;;
46288;SDS011;63105;46.158;14.604;2022-09-25T02:53:35;3.28;;;1.45;;
46288;SDS011;63105;46.158;14.604;2022-09-25T02:56:03;3.72;;;1.40;;
46288;SDS011;63105;46.158;14.604;2022-09-25T02:58:40;3.42;;;1.70;;
46288;SDS011;63105;46.158;14.604;2022-09-25T03:01:07;4.07;;;1.90;;
46288;SDS011;63105;46.158;14.604;2022-09-25T03:03:34;3.63;;;1.50;;
46288;SDS011;63105;46.158;14.604;2022-09-25T03:06:01;3.78;;;1.60;;
46288;SDS011;63105;46.158;14.604;2022-09-25T03:08:27;3.70;;;1.70;;
46288;SDS011;63105;46.158;14.604;2022-09-25T03:11:03;4.85;;;1.67;;
46288;SDS011;63105;46.158;14.604;2022-09-25T03:13:29;3.75;;;1.65;;
46288;SDS011;63105;46.158;14.604;2022-09-25T03:15:56;3.30;;;1.77;;
46288;SDS011;63105;46.158;14.604;2022-09-25T03:18:23;3.95;;;1.70;;
46288;SDS011;63105;46.158;14.604;2022-09-25T03:20:49;3.40;;;1.70;;
46288;SDS011;63105;46.158;14.604;2022-09-25T03:23:14;4.00;;;1.63;;
46288;SDS011;63105;46.158;14.604;2022-09-25T03:25:40;3.57;;;1.83;;
46288;SDS011;63105;46.158;14.604;2022-09-25T03:28:08;5.37;;;1.70;;
46288;SDS011;63105;46.158;14.604;2022-09-25T03:30:34;3.83;;;1.70;;
46288;SDS011;63105;46.158;14.604;2022-09-25T03:33:01;3.60;;;1.65;;
46288;SDS011;63105;46.158;14.604;2022-09-25T03:35:26;4.07;;;1.47;;
46288;SDS011;63105;46.158;14.604;2022-09-25T03:37:51;3.13;;;1.60;;
46288;SDS011;63105;46.158;14.604;2022-09-25T03:40:16;4.28;;;1.60;;
46288;SDS011;63105;46.158;14.604;2022-09-25T03:42:41;3.40;;;1.60;;
46288;SDS011;63105;46.158;14.604;2022-09-25T03:45:08;3.95;;;1.70;;
46288;SDS011;63105;46.158;14.604;2022-09-25T03:47:34;4.00;;;1.80;;
46288;SDS011;63105;46.158;14.604;2022-09-25T03:49:59;3.38;;;1.50;;
46288;SDS011;63105;46.158;14.604;2022-09-25T03:52:24;3.47;;;1.75;;
46288;SDS011;63105;46.158;14.604;2022-09-25T03:54:50;3.83;;;1.47;;
46288;SDS011;63105;46.158;14.604;2022-09-25T03:57:15;3.25;;;1.33;;
46288;SDS011;63105;46.158;14.604;2022-09-25T03:59:40;4.63;;;1.70;;
46288;SDS011;63105;46.158;14.604;2022-09-25T04:02:05;3.55;;;1.50;;
46288;SDS011;63105;46.158;14.604;2022-09-25T04:04:31;3.37;;;1.57;;
46288;SDS011;63105;46.158;14.604;2022-09-25T04:06:56;4.22;;;1.80;;
46288;SDS011;63105;46.158;14.604;2022-09-25T04:09:21;2.85;;;1.38;;
46288;SDS011;63105;46.158;14.604;2022-09-25T04:11:47;3.75;;;1.70;;
46288;SDS011;63105;46.158;14.604;2022-09-25T04:14:12;3.70;;;2.10;;
46288;SDS011;63105;46.158;14.604;2022-09-25T04:16:38;3.38;;;1.63;;
46288;SDS011;63105;46.158;14.604;2022-09-25T04:19:04;2.80;;;1.48;;
46288;SDS011;63105;46.158;14.604;2022-09-25T04:21:29;4.43;;;3.03;;
46288;SDS011;63105;46.158;14.604;2022-09-25T04:23:54;3.15;;;1.60;;
46288;SDS011;63105;46.158;14.604;2022-09-25T04:26:38;3.08;;;1.50;;
46288;SDS011;63105;46.158;14.604;2022-09-25T04:29:03;3.53;;;1.67;;
46288;SDS011;63105;46.158;14.604;2022-09-25T04:31:29;3.03;;;1.40;;
46288;SDS011;63105;46.158;14.604;2022-09-25T04:33:54;3.38;;;1.45;;
46288;SDS011;63105;46.158;14.604;2022-09-25T04:36:20;2.60;;;1.30;;
46288;SDS011;63105;46.158;14.604;2022-09-25T04:38:45;2.60;;;1.30;;
46288;SDS011;63105;46.158;14.604;2022-09-25T04:41:11;3.50;;;1.50;;
46288;SDS011;63105;46.158;14.604;2022-09-25T04:43:36;2.80;;;1.25;;
46288;SDS011;63105;46.158;14.604;2022-09-25T04:46:02;3.00;;;1.38;;
46288;SDS011;63105;46.158;14.604;2022-09-25T04:48:27;2.92;;;1.30;;
46288;SDS011;63105;46.158;14.604;2022-09-25T04:50:53;3.90;;;2.05;;
46288;SDS011;63105;46.158;14.604;2022-09-25T04:53:18;3.40;;;1.45;;
46288;SDS011;63105;46.158;14.604;2022-09-25T04:55:43;3.42;;;1.30;;
46288;SDS011;63105;46.158;14.604;2022-09-25T04:58:10;2.92;;;1.60;;
46288;SDS011;63105;46.158;14.604;2022-09-25T05:00:35;2.70;;;1.50;;
46288;SDS011;63105;46.158;14.604;2022-09-25T05:03:02;2.42;;;1.13;;
46288;SDS011;63105;46.158;14.604;2022-09-25T05:05:28;3.33;;;1.60;;
46288;SDS011;63105;46.158;14.604;2022-09-25T05:07:58;2.88;;;1.55;;
46288;SDS011;63105;46.158;14.604;2022-09-25T05:10:24;3.42;;;1.42;;
46288;SDS011;63105;46.158;14.604;2022-09-25T05:12:57;2.92;;;1.50;;
46288;SDS011;63105;46.158;14.604;2022-09-25T05:15:23;3.70;;;1.48;;
46288;SDS011;63105;46.158;14.604;2022-09-25T05:17:48;3.75;;;1.80;;
46288;SDS011;63105;46.158;14.604;2022-09-25T05:20:14;3.35;;;1.88;;
46288;SDS011;63105;46.158;14.604;2022-09-25T05:22:40;3.40;;;1.80;;
46288;SDS011;63105;46.158;14.604;2022-09-25T05:25:05;3.10;;;1.50;;
46288;SDS011;63105;46.158;14.604;2022-09-25T05:27:32;3.63;;;1.70;;
46288;SDS011;63105;46.158;14.604;2022-09-25T05:29:58;2.70;;;1.40;;
46288;SDS011;63105;46.158;14.604;2022-09-25T05:32:23;2.80;;;1.35;;
46288;SDS011;63105;46.158;14.604;2022-09-25T05:34:49;2.60;;;1.20;;
46288;SDS011;63105;46.158;14.604;2022-09-25T05:37:14;3.20;;;1.60;;
46288;SDS011;63105;46.158;14.604;2022-09-25T05:39:39;3.83;;;2.00;;
46288;SDS011;63105;46.158;14.604;2022-09-25T05:42:04;2.92;;;1.55;;
46288;SDS011;63105;46.158;14.604;2022-09-25T05:44:30;3.40;;;1.60;;
46288;SDS011;63105;46.158;14.604;2022-09-25T05:46:55;3.43;;;1.70;;
46288;SDS011;63105;46.158;14.604;2022-09-25T05:49:20;3.60;;;1.77;;
46288;SDS011;63105;46.158;14.604;2022-09-25T05:51:45;3.22;;;1.50;;
46288;SDS011;63105;46.158;14.604;2022-09-25T05:54:12;2.67;;;1.38;;
46288;SDS011;63105;46.158;14.604;2022-09-25T05:56:37;3.50;;;1.60;;
46288;SDS011;63105;46.158;14.604;2022-09-25T05:59:02;3.53;;;1.63;;
46288;SDS011;63105;46.158;14.604;2022-09-25T06:01:27;3.40;;;1.60;;
46288;SDS011;63105;46.158;14.604;2022-09-25T06:03:53;3.43;;;1.73;;
46288;SDS011;63105;46.158;14.604;2022-09-25T06:06:18;3.92;;;1.92;;
46288;SDS011;63105;46.158;14.604;2022-09-25T06:08:43;4.38;;;2.33;;
46288;SDS011;63105;46.158;14.604;2022-09-25T06:11:09;5.07;;;2.40;;
46288;SDS011;63105;46.158;14.604;2022-09-25T06:13:35;5.10;;;3.03;;
46288;SDS011;63105;46.158;14.604;2022-09-25T06:16:01;5.68;;;2.75;;
46288;SDS011;63105;46.158;14.604;2022-09-25T06:18:26;5.45;;;2.65;;
46288;SDS011;63105;46.158;14.604;2022-09-25T06:20:57;4.97;;;2.20;;
46288;SDS011;63105;46.158;14.604;2022-09-25T06:23:23;4.95;;;1.95;;
46288;SDS011;63105;46.158;14.604;2022-09-25T06:25:48;4.67;;;2.10;;
46288;SDS011;63105;46.158;14.604;2022-09-25T06:28:13;4.70;;;2.20;;
46288;SDS011;63105;46.158;14.604;2022-09-25T06:30:38;4.32;;;2.15;;
46288;SDS011;63105;46.158;14.604;2022-09-25T06:33:04;3.97;;;2.00;;
46288;SDS011;63105;46.158;14.604;2022-09-25T06:35:31;4.30;;;2.10;;
46288;SDS011;63105;46.158;14.604;2022-09-25T06:37:58;3.58;;;2.03;;
46288;SDS011;63105;46.158;14.604;2022-09-25T06:40:27;4.32;;;2.28;;
46288;SDS011;63105;46.158;14.604;2022-09-25T06:42:59;4.57;;;2.10;;
46288;SDS011;63105;46.158;14.604;2022-09-25T06:45:25;4.15;;;1.98;;
46288;SDS011;63105;46.158;14.604;2022-09-25T06:47:58;5.13;;;2.10;;
46288;SDS011;63105;46.158;14.604;2022-09-25T06:50:24;3.63;;;1.83;;
46288;SDS011;63105;46.158;14.604;2022-09-25T06:52:55;3.85;;;1.90;;
46288;SDS011;63105;46.158;14.604;2022-09-25T06:55:21;4.25;;;1.90;;
46288;SDS011;63105;46.158;14.604;2022-09-25T06:57:46;3.37;;;1.60;;
46288;SDS011;63105;46.158;14.604;2022-09-25T07:00:11;3.80;;;1.80;;
46288;SDS011;63105;46.158;14.604;2022-09-25T07:02:37;4.25;;;1.75;;
46288;SDS011;63105;46.158;14.604;2022-09-25T07:05:20;3.97;;;2.00;;
46288;SDS011;63105;46.158;14.604;2022-09-25T07:07:45;3.53;;;2.00;;
46288;SDS011;63105;46.158;14.604;2022-09-25T07:10:12;4.35;;;2.25;;
46288;SDS011;63105;46.158;14.604;2022-09-25T07:12:37;4.18;;;1.90;;
46288;SDS011;63105;46.158;14.604;2022-09-25T07:15:05;4.25;;;1.88;;
46288;SDS011;63105;46.158;14.604;2022-09-25T07:17:30;4.50;;;1.75;;
46288;SDS011;63105;46.158;14.604;2022-09-25T07:19:56;3.63;;;1.87;;
46288;SDS011;63105;46.158;14.604;2022-09-25T07:22:21;3.00;;;1.67;;
46288;SDS011;63105;46.158;14.604;2022-09-25T07:24:46;4.38;;;1.80;;
46288;SDS011;63105;46.158;14.604;2022-09-25T07:27:11;4.30;;;1.80;;
46288;SDS011;63105;46.158;14.604;2022-09-25T07:29:36;4.00;;;1.80;;
46288;SDS011;63105;46.158;14.604;2022-09-25T07:32:02;5.35;;;1.98;;
46288;SDS011;63105;46.158;14.604;2022-09-25T07:34:28;3.35;;;1.85;;
46288;SDS011;63105;46.158;14.604;2022-09-25T07:36:53;4.07;;;2.27;;
46288;SDS011;63105;46.158;14.604;2022-09-25T07:39:19;4.10;;;2.47;;
46288;SDS011;63105;46.158;14.604;2022-09-25T07:41:44;4.32;;;2.67;;
46288;SDS011;63105;46.158;14.604;2022-09-25T07:44:10;4.35;;;2.10;;
46288;SDS011;63105;46.158;14.604;2022-09-25T07:46:35;4.63;;;2.97;;
46288;SDS011;63105;46.158;14.604;2022-09-25T07:49:01;4.00;;;2.45;;
46288;SDS011;63105;46.158;14.604;2022-09-25T07:51:26;4.03;;;2.28;;
46288;SDS011;63105;46.158;14.604;2022-09-25T07:53:52;4.05;;;2.45;;
46288;SDS011;63105;46.158;14.604;2022-09-25T07:56:17;4.07;;;2.30;;
46288;SDS011;63105;46.158;14.604;2022-09-25T07:58:42;4.38;;;2.35;;
46288;SDS011;63105;46.158;14.604;2022-09-25T08:01:09;3.85;;;2.20;;
46288;SDS011;63105;46.158;14.604;2022-09-25T08:03:35;5.63;;;2.88;;
46288;SDS011;63105;46.158;14.604;2022-09-25T08:06:01;4.53;;;2.45;;
46288;SDS011;63105;46.158;14.604;2022-09-25T08:08:27;4.40;;;2.15;;
46288;SDS011;63105;46.158;14.604;2022-09-25T08:10:53;4.32;;;2.63;;
46288;SDS011;63105;46.158;14.604;2022-09-25T08:13:19;4.35;;;2.58;;
46288;SDS011;63105;46.158;14.604;2022-09-25T08:15:47;4.88;;;2.53;;
46288;SDS011;63105;46.158;14.604;2022-09-25T08:18:12;3.80;;;2.00;;
46288;SDS011;63105;46.158;14.604;2022-09-25T08:20:37;3.80;;;2.10;;
46288;SDS011;63105;46.158;14.604;2022-09-25T08:23:04;3.72;;;2.05;;
46288;SDS011;63105;46.158;14.604;2022-09-25T08:25:29;3.88;;;1.92;;
46288;SDS011;63105;46.158;14.604;2022-09-25T08:27:54;3.70;;;2.10;;
46288;SDS011;63105;46.158;14.604;2022-09-25T08:30:20;4.00;;;2.00;;
46288;SDS011;63105;46.158;14.604;2022-09-25T08:32:45;3.60;;;1.90;;
46288;SDS011;63105;46.158;14.604;2022-09-25T08:35:10;3.80;;;2.17;;
46288;SDS011;63105;46.158;14.604;2022-09-25T08:37:38;3.57;;;2.00;;
46288;SDS011;63105;46.158;14.604;2022-09-25T08:40:04;3.22;;;1.80;;
46288;SDS011;63105;46.158;14.604;2022-09-25T08:42:33;3.75;;;1.75;;
46288;SDS011;63105;46.158;14.604;2022-09-25T08:45:01;3.38;;;1.88;;
46288;SDS011;63105;46.158;14.604;2022-09-25T08:47:51;2.55;;;1.38;;
46288;SDS011;63105;46.158;14.604;2022-09-25T08:50:36;3.13;;;1.63;;
46288;SDS011;63105;46.158;14.604;2022-09-25T08:53:06;4.53;;;1.77;;
46288;SDS011;63105;46.158;14.604;2022-09-25T08:55:33;4.15;;;2.00;;
46288;SDS011;63105;46.158;14.604;2022-09-25T08:58:25;4.15;;;1.83;;
46288;SDS011;63105;46.158;14.604;2022-09-25T09:00:51;4.63;;;1.95;;
46288;SDS011;63105;46.158;14.604;2022-09-25T09:03:17;3.10;;;1.77;;
46288;SDS011;63105;46.158;14.604;2022-09-25T09:05:43;3.45;;;1.67;;
46288;SDS011;63105;46.158;14.604;2022-09-25T09:08:15;4.35;;;2.25;;
46288;SDS011;63105;46.158;14.604;2022-09-25T09:16:17;3.88;;;2.20;;
46288;SDS011;63105;46.158;14.604;2022-09-25T09:23:17;12.05;;;8.15;;
46288;SDS011;63105;46.158;14.604;2022-09-25T09:25:46;7.03;;;5.00;;
46288;SDS011;63105;46.158;14.604;2022-09-25T09:36:14;5.28;;;3.47;;
46288;SDS011;63105;46.158;14.604;2022-09-25T09:38:53;7.55;;;5.60;;
46288;SDS011;63105;46.158;14.604;2022-09-25T09:41:35;8.95;;;5.72;;
46288;SDS011;63105;46.158;14.604;2022-09-25T09:44:11;5.40;;;3.17;;
46288;SDS011;63105;46.158;14.604;2022-09-25T09:49:28;5.03;;;3.00;;
46288;SDS011;63105;46.158;14.604;2022-09-25T09:51:59;6.35;;;4.40;;
46288;SDS011;63105;46.158;14.604;2022-09-25T09:54:29;6.70;;;4.03;;
46288;SDS011;63105;46.158;14.604;2022-09-25T09:56:59;5.25;;;3.10;;
46288;SDS011;63105;46.158;14.604;2022-09-25T09:59:29;4.70;;;2.90;;
46288;SDS011;63105;46.158;14.604;2022-09-25T10:02:02;6.47;;;3.42;;
46288;SDS011;63105;46.158;14.604;2022-09-25T10:04:30;7.05;;;4.43;;
46288;SDS011;63105;46.158;14.604;2022-09-25T10:06:58;6.20;;;3.75;;
46288;SDS011;63105;46.158;14.604;2022-09-25T10:09:26;5.28;;;3.60;;
46288;SDS011;63105;46.158;14.604;2022-09-25T10:11:55;6.40;;;3.88;;
46288;SDS011;63105;46.158;14.604;2022-09-25T10:14:21;8.27;;;6.20;;
46288;SDS011;63105;46.158;14.604;2022-09-25T10:16:50;7.57;;;4.70;;
46288;SDS011;63105;46.158;14.604;2022-09-25T10:19:17;6.72;;;4.05;;
46288;SDS011;63105;46.158;14.604;2022-09-25T10:22:04;10.43;;;6.72;;
46288;SDS011;63105;46.158;14.604;2022-09-25T10:27:35;5.05;;;3.67;;
46288;SDS011;63105;46.158;14.604;2022-09-25T10:32:25;5.67;;;3.50;;
46288;SDS011;63105;46.158;14.604;2022-09-25T10:34:51;7.43;;;3.63;;
46288;SDS011;63105;46.158;14.604;2022-09-25T10:37:17;4.68;;;2.90;;
46288;SDS011;63105;46.158;14.604;2022-09-25T10:39:58;7.68;;;4.60;;
46288;SDS011;63105;46.158;14.604;2022-09-25T10:42:31;5.32;;;3.47;;
46288;SDS011;63105;46.158;14.604;2022-09-25T10:44:58;7.37;;;4.50;;
46288;SDS011;63105;46.158;14.604;2022-09-25T10:50:16;5.68;;;3.53;;
46288;SDS011;63105;46.158;14.604;2022-09-25T10:52:50;5.90;;;4.20;;
46288;SDS011;63105;46.158;14.604;2022-09-25T10:55:24;4.88;;;3.30;;
46288;SDS011;63105;46.158;14.604;2022-09-25T10:58:18;6.35;;;3.88;;
46288;SDS011;63105;46.158;14.604;2022-09-25T11:00:42;5.65;;;3.40;;
46288;SDS011;63105;46.158;14.604;2022-09-25T11:03:11;5.00;;;3.13;;
46288;SDS011;63105;46.158;14.604;2022-09-25T11:05:38;4.75;;;3.10;;
46288;SDS011;63105;46.158;14.604;2022-09-25T11:08:12;5.32;;;3.08;;
46288;SDS011;63105;46.158;14.604;2022-09-25T11:10:49;4.55;;;2.95;;
46288;SDS011;63105;46.158;14.604;2022-09-25T11:13:22;4.53;;;2.58;;
46288;SDS011;63105;46.158;14.604;2022-09-25T11:15:49;4.53;;;3.08;;
46288;SDS011;63105;46.158;14.604;2022-09-25T11:21:01;4.45;;;2.90;;
46288;SDS011;63105;46.158;14.604;2022-09-25T11:30:50;5.83;;;3.50;;
46288;SDS011;63105;46.158;14.604;2022-09-25T11:36:35;5.13;;;3.22;;
46288;SDS011;63105;46.158;14.604;2022-09-25T11:38:47;5.75;;;3.97;;
46288;SDS011;63105;46.158;14.604;2022-09-25T11:41:41;4.95;;;2.97;;
46288;SDS011;63105;46.158;14.604;2022-09-25T11:44:16;7.00;;;4.15;;
46288;SDS011;63105;46.158;14.604;2022-09-25T11:57:15;6.00;;;3.42;;
46288;SDS011;63105;46.158;14.604;2022-09-25T12:02:27;6.93;;;4.10;;
46288;SDS011;63105;46.158;14.604;2022-09-25T12:05:17;5.97;;;3.88;;
46288;SDS011;63105;46.158;14.604;2022-09-25T12:21:06;5.25;;;3.13;;
46288;SDS011;63105;46.158;14.604;2022-09-25T12:23:35;6.40;;;3.33;;
46288;SDS011;63105;46.158;14.604;2022-09-25T12:26:08;4.38;;;2.72;;
46288;SDS011;63105;46.158;14.604;2022-09-25T12:36:10;8.77;;;6.93;;
46288;SDS011;63105;46.158;14.604;2022-09-25T12:38:41;8.18;;;6.63;;
46288;SDS011;63105;46.158;14.604;2022-09-25T12:41:11;6.13;;;4.45;;
46288;SDS011;63105;46.158;14.604;2022-09-25T12:48:36;5.93;;;4.00;;
46288;SDS011;63105;46.158;14.604;2022-09-25T12:51:08;7.53;;;4.55;;
46288;SDS011;63105;46.158;14.604;2022-09-25T12:53:37;6.93;;;3.90;;
46288;SDS011;63105;46.158;14.604;2022-09-25T12:58:42;5.88;;;3.33;;
46288;SDS011;63105;46.158;14.604;2022-09-25T13:01:11;5.22;;;3.42;;
46288;SDS011;63105;46.158;14.604;2022-09-25T13:03:41;6.25;;;3.53;;
46288;SDS011;63105;46.158;14.604;2022-09-25T13:06:11;6.13;;;3.53;;
46288;SDS011;63105;46.158;14.604;2022-09-25T13:08:50;5.18;;;3.78;;
46288;SDS011;63105;46.158;14.604;2022-09-25T13:13:49;4.40;;;2.80;;
46288;SDS011;63105;46.158;14.604;2022-09-25T13:16:17;5.65;;;3.10;;
46288;SDS011;63105;46.158;14.604;2022-09-25T13:18:46;4.63;;;2.90;;
46288;SDS011;63105;46.158;14.604;2022-09-25T13:21:25;6.07;;;3.78;;
46288;SDS011;63105;46.158;14.604;2022-09-25T13:23:53;8.70;;;6.18;;
46288;SDS011;63105;46.158;14.604;2022-09-25T13:26:23;4.82;;;3.00;;
46288;SDS011;63105;46.158;14.604;2022-09-25T13:28:57;5.35;;;3.03;;
46288;SDS011;63105;46.158;14.604;2022-09-25T13:31:24;4.85;;;2.70;;
46288;SDS011;63105;46.158;14.604;2022-09-25T13:38:51;2.87;;;1.77;;
46288;SDS011;63105;46.158;14.604;2022-09-25T13:41:45;4.03;;;2.60;;
46288;SDS011;63105;46.158;14.604;2022-09-25T14:03:01;3.90;;;2.22;;
46288;SDS011;63105;46.158;14.604;2022-09-25T14:05:28;5.43;;;2.92;;
46288;SDS011;63105;46.158;14.604;2022-09-25T14:08:01;5.03;;;2.83;;
46288;SDS011;63105;46.158;14.604;2022-09-25T14:10:28;4.40;;;3.05;;
46288;SDS011;63105;46.158;14.604;2022-09-25T14:12:53;4.53;;;2.78;;
46288;SDS011;63105;46.158;14.604;2022-09-25T14:15:20;5.97;;;3.22;;
46288;SDS011;63105;46.158;14.604;2022-09-25T14:17:46;4.82;;;2.60;;
46288;SDS011;63105;46.158;14.604;2022-09-25T14:20:36;5.85;;;3.45;;
46288;SDS011;63105;46.158;14.604;2022-09-25T14:23:00;3.67;;;2.20;;
46288;SDS011;63105;46.158;14.604;2022-09-25T14:25:33;4.50;;;2.60;;
46288;SDS011;63105;46.158;14.604;2022-09-25T14:28:21;3.90;;;2.25;;
46288;SDS011;63105;46.158;14.604;2022-09-25T14:30:48;4.13;;;2.35;;
46288;SDS011;63105;46.158;14.604;2022-09-25T14:35:58;3.90;;;2.40;;
46288;SDS011;63105;46.158;14.604;2022-09-25T14:38:48;4.07;;;2.20;;
46288;SDS011;63105;46.158;14.604;2022-09-25T14:46:49;5.05;;;2.30;;
46288;SDS011;63105;46.158;14.604;2022-09-25T14:49:26;3.30;;;1.73;;
46288;SDS011;63105;46.158;14.604;2022-09-25T14:51:53;3.70;;;2.03;;
46288;SDS011;63105;46.158;14.604;2022-09-25T14:54:20;3.40;;;1.80;;
46288;SDS011;63105;46.158;14.604;2022-09-25T14:56:47;3.30;;;1.80;;
46288;SDS011;63105;46.158;14.604;2022-09-25T14:59:18;3.67;;;1.95;;
46288;SDS011;63105;46.158;14.604;2022-09-25T15:01:45;4.47;;;2.95;;
46288;SDS011;63105;46.158;14.604;2022-09-25T15:04:11;3.80;;;2.17;;
46288;SDS011;63105;46.158;14.604;2022-09-25T15:06:37;4.77;;;2.67;;
46288;SDS011;63105;46.158;14.604;2022-09-25T15:11:47;3.70;;;2.10;;
46288;SDS011;63105;46.158;14.604;2022-09-25T15:14:17;3.55;;;2.25;;
46288;SDS011;63105;46.158;14.604;2022-09-25T15:16:45;4.05;;;2.13;;
46288;SDS011;63105;46.158;14.604;2022-09-25T15:19:31;4.53;;;2.00;;
46288;SDS011;63105;46.158;14.604;2022-09-25T15:21:57;3.90;;;2.15;;
46288;SDS011;63105;46.158;14.604;2022-09-25T15:24:25;3.90;;;2.20;;
46288;SDS011;63105;46.158;14.604;2022-09-25T15:26:59;3.72;;;2.10;;
46288;SDS011;63105;46.158;14.604;2022-09-25T15:29:27;3.83;;;2.28;;
46288;SDS011;63105;46.158;14.604;2022-09-25T15:31:53;6.40;;;2.83;;
46288;SDS011;63105;46.158;14.604;2022-09-25T15:34:23;13.75;;;3.63;;
46288;SDS011;63105;46.158;14.604;2022-09-25T15:36:50;6.75;;;3.67;;
46288;SDS011;63105;46.158;14.604;2022-09-25T15:39:20;11.35;;;4.00;;
46288;SDS011;63105;46.158;14.604;2022-09-25T15:41:45;9.77;;;3.75;;
46288;SDS011;63105;46.158;14.604;2022-09-25T15:44:12;12.77;;;4.00;;
46288;SDS011;63105;46.158;14.604;2022-09-25T15:46:48;8.30;;;3.65;;
46288;SDS011;63105;46.158;14.604;2022-09-25T15:49:14;8.00;;;4.05;;
46288;SDS011;63105;46.158;14.604;2022-09-25T15:51:44;7.32;;;3.80;;
46288;SDS011;63105;46.158;14.604;2022-09-25T15:54:29;7.80;;;3.88;;
46288;SDS011;63105;46.158;14.604;2022-09-25T15:56:55;8.77;;;4.30;;
46288;SDS011;63105;46.158;14.604;2022-09-25T15:59:32;5.65;;;3.60;;
46288;SDS011;63105;46.158;14.604;2022-09-25T16:01:59;8.50;;;3.80;;
46288;SDS011;63105;46.158;14.604;2022-09-25T16:04:49;6.75;;;3.65;;
46288;SDS011;63105;46.158;14.604;2022-09-25T16:09:51;6.80;;;3.80;;
46288;SDS011;63105;46.158;14.604;2022-09-25T16:14:54;6.50;;;4.07;;
46288;SDS011;63105;46.158;14.604;2022-09-25T16:17:41;6.82;;;4.43;;
46288;SDS011;63105;46.158;14.604;2022-09-25T16:22:38;7.03;;;4.40;;
46288;SDS011;63105;46.158;14.604;2022-09-25T16:25:14;6.93;;;4.05;;
46288;SDS011;63105;46.158;14.604;2022-09-25T16:27:41;6.53;;;4.20;;
46288;SDS011;63105;46.158;14.604;2022-09-25T16:30:13;6.78;;;4.10;;
46288;SDS011;63105;46.158;14.604;2022-09-25T16:32:40;6.63;;;3.88;;
46288;SDS011;63105;46.158;14.604;2022-09-25T16:35:13;7.25;;;3.97;;
46288;SDS011;63105;46.158;14.604;2022-09-25T16:37:43;6.05;;;4.22;;
46288;SDS011;63105;46.158;14.604;2022-09-25T16:42:41;7.10;;;4.20;;
46288;SDS011;63105;46.158;14.604;2022-09-25T16:45:14;7.75;;;4.30;;
46288;SDS011;63105;46.158;14.604;2022-09-25T16:47:40;7.20;;;4.03;;
46288;SDS011;63105;46.158;14.604;2022-09-25T16:50:08;8.00;;;4.55;;
46288;SDS011;63105;46.158;14.604;2022-09-25T16:52:33;7.03;;;4.20;;
46288;SDS011;63105;46.158;14.604;2022-09-25T16:54:58;7.05;;;4.68;;
46288;SDS011;63105;46.158;14.604;2022-09-25T16:57:24;8.87;;;5.00;;
46288;SDS011;63105;46.158;14.604;2022-09-25T16:59:51;8.07;;;5.40;;
46288;SDS011;63105;46.158;14.604;2022-09-25T17:02:21;7.70;;;4.72;;
46288;SDS011;63105;46.158;14.604;2022-09-25T17:04:49;8.88;;;5.40;;
46288;SDS011;63105;46.158;14.604;2022-09-25T17:07:14;10.18;;;5.28;;
46288;SDS011;63105;46.158;14.604;2022-09-25T17:09:40;9.00;;;5.18;;
46288;SDS011;63105;46.158;14.604;2022-09-25T17:12:06;9.23;;;4.90;;
46288;SDS011;63105;46.158;14.604;2022-09-25T17:14:34;8.30;;;4.63;;